createdAt,value
2018-10-21T10:36:46.927Z,20.80
2018-10-21T10:38:21.041Z,20.80
2018-10-21T10:39:55.238Z,20.70
2018-10-21T10:41:30.592Z,20.20
2018-10-21T10:43:05.730Z,20.30
2018-10-21T10:44:40.506Z,20.50
2018-10-21T10:46:14.769Z,20.50
2018-10-21T10:47:48.858Z,20.40
2018-10-21T10:49:23.057Z,20.30
2018-10-21T10:50:57.251Z,20.30
2018-10-21T10:52:31.343Z,20.60
2018-10-21T10:54:06.316Z,20.90
2018-10-21T10:56:01.538Z,21.00
2018-10-21T10:57:38.199Z,20.80
2018-10-21T10:59:12.331Z,20.60
2018-10-21T11:00:46.560Z,20.50
2018-10-21T11:02:20.829Z,20.50
2018-10-21T11:03:54.908Z,20.50
2018-10-21T11:05:28.955Z,20.80
2018-10-21T11:07:03.069Z,20.70
2018-10-21T11:08:37.176Z,20.70
2018-10-21T11:10:11.345Z,20.70
2018-10-21T11:11:45.421Z,20.80
2018-10-21T11:13:19.623Z,21.00
2018-10-21T11:14:53.724Z,21.10
2018-10-21T11:16:27.735Z,21.00
2018-10-21T11:18:01.892Z,21.00
2018-10-21T11:19:35.961Z,20.80
2018-10-21T11:21:10.083Z,20.90
2018-10-21T11:22:44.232Z,20.80
2018-10-21T11:24:18.244Z,20.70
2018-10-21T11:25:52.321Z,20.60
2018-10-21T11:27:27.357Z,20.60
2018-10-21T11:29:01.547Z,20.70
2018-10-21T11:30:35.589Z,21.10
2018-10-21T11:32:09.755Z,21.20
2018-10-21T11:33:44.117Z,20.80
2018-10-21T11:35:18.220Z,20.50
2018-10-21T11:36:52.355Z,20.40
2018-10-21T11:38:26.568Z,20.60
2018-10-21T11:40:00.673Z,20.20
2018-10-21T11:41:34.747Z,20.50
2018-10-21T11:43:08.961Z,20.50
2018-10-21T11:44:43.041Z,20.60
2018-10-21T11:46:17.143Z,21.00
2018-10-21T11:47:51.347Z,21.10
2018-10-21T11:49:25.516Z,20.70
2018-10-21T11:50:59.697Z,20.30
2018-10-21T11:52:33.850Z,19.90
2018-10-21T11:54:07.897Z,20.00
2018-10-21T11:55:42.815Z,20.40
2018-10-21T11:57:16.878Z,20.40
2018-10-21T11:58:50.934Z,20.50
2018-10-21T12:00:25.085Z,20.70
2018-10-21T12:01:59.175Z,20.90
2018-10-21T12:03:33.252Z,21.10
2018-10-21T12:05:07.406Z,21.40
2018-10-21T12:06:41.479Z,21.40
2018-10-21T12:08:15.565Z,21.60
2018-10-21T12:09:49.617Z,21.50
2018-10-21T12:11:24.149Z,21.60
2018-10-21T12:12:58.257Z,21.60
2018-10-21T12:14:32.356Z,21.60
2018-10-21T12:16:06.928Z,21.30
2018-10-21T12:17:41.206Z,20.90
2018-10-21T12:19:15.348Z,20.60
2018-10-21T12:20:49.635Z,20.60
2018-10-21T12:22:23.816Z,20.60
2018-10-21T12:23:58.017Z,20.30
2018-10-21T12:25:32.260Z,20.00
2018-10-21T12:27:06.488Z,19.80
2018-10-21T12:28:40.678Z,19.80
2018-10-21T12:30:14.774Z,19.80
2018-10-21T12:31:48.866Z,19.70
2018-10-21T12:33:23.225Z,19.60
2018-10-21T12:34:57.715Z,19.80
2018-10-21T12:36:31.818Z,19.80
2018-10-21T12:38:05.967Z,19.90
2018-10-21T12:39:40.117Z,20.10
2018-10-21T12:41:14.355Z,20.20
2018-10-21T12:42:48.608Z,20.20
2018-10-21T12:44:22.871Z,20.20
2018-10-21T12:45:57.327Z,20.30
2018-10-21T12:47:31.514Z,20.30
2018-10-21T12:49:05.996Z,20.40
2018-10-21T12:50:39.999Z,20.50
2018-10-21T12:52:14.180Z,20.40
2018-10-21T12:53:48.400Z,20.10
2018-10-21T12:55:22.829Z,20.10
2018-10-21T12:56:57.049Z,20.00
2018-10-21T12:58:31.375Z,20.10
2018-10-21T13:00:05.954Z,20.20
2018-10-21T13:01:40.090Z,20.20
2018-10-21T13:03:14.202Z,20.30
2018-10-21T13:04:48.330Z,20.50
2018-10-21T13:06:22.446Z,20.60
2018-10-21T13:07:56.830Z,20.40
2018-10-21T13:09:30.953Z,20.60
2018-10-21T13:11:05.260Z,20.60
2018-10-21T13:12:39.394Z,20.30
2018-10-21T13:14:13.519Z,20.50
2018-10-21T13:15:47.945Z,20.40
2018-10-21T13:17:22.044Z,20.20
2018-10-21T13:18:56.332Z,20.00
2018-10-21T13:20:30.451Z,19.80
2018-10-21T13:22:04.597Z,19.70
2018-10-21T13:23:38.791Z,19.60
2018-10-21T13:25:12.945Z,19.70
2018-10-21T13:26:47.242Z,19.80
2018-10-21T13:28:21.525Z,19.90
2018-10-21T13:29:55.558Z,20.10
2018-10-21T13:31:29.633Z,20.10
2018-10-21T13:33:03.781Z,20.20
2018-10-21T13:34:37.975Z,20.20
2018-10-21T13:36:12.028Z,20.30
2018-10-21T13:37:46.170Z,20.30
2018-10-21T13:41:08.268Z,20.50
2018-10-21T13:42:42.405Z,20.60
2018-10-21T13:44:16.625Z,20.60
2018-10-21T13:45:50.836Z,20.20
2018-10-21T13:47:24.850Z,20.20
2018-10-21T13:48:59.022Z,20.20
2018-10-21T13:50:33.158Z,20.10
2018-10-21T13:52:07.439Z,20.00
2018-10-21T13:53:41.368Z,20.00
2018-10-21T13:55:15.571Z,20.00
2018-10-21T13:56:49.866Z,19.90
2018-10-21T13:58:24.287Z,20.00
2018-10-21T13:59:58.378Z,20.00
2018-10-21T14:01:32.490Z,20.00
2018-10-21T14:03:06.445Z,19.90
2018-10-21T14:04:40.551Z,20.00
2018-10-21T14:06:14.687Z,20.00
2018-10-21T14:07:48.831Z,20.00
2018-10-21T14:09:22.976Z,19.80
2018-10-21T14:10:57.121Z,19.70
2018-10-21T14:12:31.314Z,19.30
2018-10-21T14:14:06.094Z,19.50
2018-10-21T14:15:40.305Z,19.40
2018-10-21T14:17:14.441Z,19.40
2018-10-21T14:18:48.621Z,19.20
2018-10-21T14:20:22.666Z,19.20
2018-10-21T14:22:23.115Z,19.20
2018-10-21T14:36:55.441Z,19.20
2018-10-21T15:08:00.753Z,17.60
2018-10-21T15:09:36.014Z,17.60
2018-10-21T15:11:10.320Z,17.50
2018-10-21T15:12:44.553Z,17.50
2018-10-21T15:14:20.689Z,17.40
2018-10-21T15:15:54.909Z,17.30
2018-10-21T15:17:29.315Z,17.10
2018-10-21T15:19:03.515Z,17.10
2018-10-21T15:20:37.893Z,17.00
2018-10-21T15:22:12.395Z,17.00
2018-10-21T15:23:46.444Z,16.90
2018-10-21T15:25:20.860Z,16.90
2018-10-21T15:26:55.173Z,17.00
2018-10-21T15:28:29.889Z,16.90
2018-10-21T15:30:05.177Z,17.00
2018-10-21T15:31:39.292Z,16.90
2018-10-21T15:33:16.041Z,16.80
2018-10-21T15:34:50.939Z,16.80
2018-10-21T15:36:26.007Z,16.80
2018-10-21T15:38:01.163Z,16.70
2018-10-21T15:39:35.957Z,16.60
2018-10-21T15:41:12.331Z,16.60
2018-10-21T15:42:47.015Z,16.60
2018-10-21T15:44:22.692Z,16.50
2018-10-21T15:45:56.991Z,16.40
2018-10-21T15:47:33.501Z,16.30
2018-10-21T15:49:08.533Z,16.30
2018-10-21T15:50:42.766Z,16.20
2018-10-21T15:52:16.959Z,16.20
2018-10-21T15:53:51.330Z,16.20
2018-10-21T15:55:25.590Z,16.20
2018-10-21T15:56:59.791Z,16.20
2018-10-21T15:58:34.299Z,16.10
2018-10-21T16:00:10.318Z,16.10
2018-10-21T16:01:44.478Z,16.10
2018-10-21T16:03:18.751Z,16.00
2018-10-21T16:04:52.973Z,15.90
2018-10-21T16:06:27.221Z,15.90
2018-10-21T16:08:01.465Z,15.80
2018-10-21T16:09:35.872Z,15.70
2018-10-21T16:11:10.299Z,15.60
2018-10-21T16:12:44.434Z,15.60
2018-10-21T16:14:18.704Z,15.50
2018-10-21T16:15:53.006Z,15.50
2018-10-21T16:17:27.139Z,15.40
2018-10-21T16:19:01.361Z,15.30
2018-10-21T16:20:35.496Z,15.20
2018-10-21T16:22:09.785Z,15.10
2018-10-21T16:23:43.956Z,15.00
2018-10-21T16:25:18.211Z,15.00
2018-10-21T16:26:52.777Z,14.80
2018-10-21T16:28:27.067Z,14.80
2018-10-21T16:30:01.274Z,14.70
2018-10-21T16:31:35.493Z,14.60
2018-10-21T16:33:09.667Z,14.50
2018-10-21T16:34:43.853Z,14.50
2018-10-21T16:36:18.080Z,14.40
2018-10-21T16:37:52.196Z,14.30
2018-10-21T16:39:26.676Z,14.20
2018-10-21T16:41:00.921Z,14.20
2018-10-21T16:42:35.225Z,14.10
2018-10-21T16:44:09.552Z,14.00
2018-10-21T16:45:43.871Z,14.00
2018-10-21T16:47:18.857Z,13.90
2018-10-21T16:48:53.810Z,13.80
2018-10-21T16:50:31.022Z,13.70
2018-10-21T16:52:05.406Z,13.70
2018-10-21T16:53:39.614Z,13.60
2018-10-21T16:55:14.544Z,13.50
2018-10-21T16:56:48.944Z,13.40
2018-10-21T16:58:23.233Z,13.30
2018-10-21T16:59:57.547Z,13.30
2018-10-21T17:01:31.807Z,13.20
2018-10-21T17:03:06.250Z,13.20
2018-10-21T17:04:40.483Z,13.20
2018-10-21T17:06:14.910Z,13.10
2018-10-21T17:07:49.227Z,13.00
2018-10-21T17:09:25.160Z,13.00
2018-10-21T17:10:59.394Z,12.90
2018-10-21T17:12:33.765Z,12.90
2018-10-21T17:14:09.219Z,12.80
2018-10-21T17:15:43.551Z,12.70
2018-10-21T17:17:18.537Z,12.70
2018-10-21T17:18:53.951Z,12.70
2018-10-21T17:20:28.594Z,12.60
2018-10-21T17:22:03.001Z,12.60
2018-10-21T17:23:37.256Z,12.60
2018-10-21T17:25:11.799Z,12.50
2018-10-21T17:26:46.067Z,12.50
2018-10-21T17:28:20.581Z,12.40
2018-10-21T17:29:54.869Z,12.40
2018-10-21T17:31:29.337Z,12.40
2018-10-21T17:33:03.602Z,12.40
2018-10-21T17:34:37.814Z,12.30
2018-10-21T17:36:12.344Z,12.30
2018-10-21T17:37:46.968Z,12.20
2018-10-21T17:39:21.467Z,12.20
2018-10-21T17:40:56.013Z,12.20
2018-10-21T17:42:30.217Z,12.10
2018-10-21T17:44:04.949Z,12.10
2018-10-21T17:45:39.435Z,12.10
2018-10-21T17:47:13.723Z,12.10
2018-10-21T17:48:48.109Z,12.00
2018-10-21T17:50:22.642Z,12.00
2018-10-21T17:51:57.353Z,11.90
2018-10-21T17:53:31.764Z,11.90
2018-10-21T17:55:06.470Z,11.90
2018-10-21T17:56:46.040Z,11.90
2018-10-21T17:58:20.731Z,11.80
2018-10-21T17:59:55.242Z,11.80
2018-10-21T18:01:29.429Z,11.80
2018-10-21T18:03:04.065Z,11.80
2018-10-21T18:04:38.262Z,11.70
2018-10-21T18:06:13.989Z,11.70
2018-10-21T18:07:48.285Z,11.70
2018-10-21T18:09:22.671Z,11.60
2018-10-21T18:10:56.914Z,11.60
2018-10-21T18:12:31.211Z,11.60
2018-10-21T18:14:05.954Z,11.60
2018-10-21T18:15:40.284Z,11.50
2018-10-21T18:17:15.485Z,11.50
2018-10-21T18:18:49.834Z,11.50
2018-10-21T18:20:24.291Z,11.40
2018-10-21T18:22:00.714Z,11.40
2018-10-21T18:23:35.038Z,11.40
2018-10-21T18:26:05.844Z,11.30
2018-10-21T18:27:40.462Z,11.30
2018-10-21T18:29:14.826Z,11.30
2018-10-21T18:30:53.128Z,11.30
2018-10-21T18:32:27.673Z,11.20
2018-10-21T18:34:02.693Z,11.10
2018-10-21T18:35:36.877Z,11.10
2018-10-21T18:37:11.081Z,11.10
2018-10-21T18:38:45.703Z,11.10
2018-10-21T18:40:20.448Z,11.10
2018-10-21T18:41:56.859Z,11.00
2018-10-21T18:43:32.400Z,11.00
2018-10-21T18:45:08.724Z,10.90
2018-10-21T18:46:43.688Z,10.90
2018-10-21T18:48:17.984Z,10.90
2018-10-21T18:49:52.182Z,10.90
2018-10-21T18:51:26.444Z,10.80
2018-10-21T18:53:00.751Z,10.80
2018-10-21T18:54:40.768Z,10.80
2018-10-21T18:56:16.794Z,10.80
2018-10-21T18:57:56.050Z,10.70
2018-10-21T18:59:30.768Z,10.70
2018-10-21T19:01:05.214Z,10.70
2018-10-21T19:02:39.518Z,10.70
2018-10-21T19:04:13.891Z,10.60
2018-10-21T19:05:50.747Z,10.60
2018-10-21T19:07:25.558Z,10.60
2018-10-21T19:09:00.001Z,10.50
2018-10-21T19:10:36.878Z,10.50
2018-10-21T19:12:11.156Z,10.50
2018-10-21T19:13:45.597Z,10.40
2018-10-21T19:15:19.948Z,10.40
2018-10-21T19:16:54.141Z,10.40
2018-10-21T19:18:28.879Z,10.40
2018-10-21T19:20:03.487Z,10.30
2018-10-21T19:21:37.682Z,10.30
2018-10-21T19:23:14.177Z,10.30
2018-10-21T19:24:48.477Z,10.30
2018-10-21T19:26:24.175Z,10.30
2018-10-21T19:27:59.196Z,10.20
2018-10-21T19:29:36.220Z,10.20
2018-10-21T19:31:10.882Z,10.20
2018-10-21T19:32:47.765Z,10.10
2018-10-21T19:34:24.974Z,10.10
2018-10-21T19:35:59.784Z,10.10
2018-10-21T19:37:34.636Z,10.10
2018-10-21T19:39:14.789Z,10.00
2018-10-21T19:40:49.076Z,10.00
2018-10-21T19:42:23.472Z,10.00
2018-10-21T19:43:57.715Z,10.00
2018-10-21T19:45:32.021Z,10.00
2018-10-21T19:47:06.426Z,10.10
2018-10-21T19:48:41.023Z,10.10
2018-10-21T19:50:16.083Z,10.10
2018-10-21T19:51:50.717Z,10.10
2018-10-21T19:53:24.880Z,10.10
2018-10-21T19:54:59.163Z,10.10
2018-10-21T19:56:33.379Z,10.10
2018-10-21T19:58:07.779Z,10.10
2018-10-21T19:59:42.376Z,10.00
2018-10-21T20:01:17.277Z,10.10
2018-10-21T20:02:51.899Z,10.00
2018-10-21T20:04:26.218Z,10.00
2018-10-21T20:06:02.126Z,10.00
2018-10-21T20:07:36.984Z,10.00
2018-10-21T20:09:14.391Z,10.00
2018-10-21T20:10:49.292Z,9.90
2018-10-21T20:12:23.945Z,9.90
2018-10-21T20:13:58.772Z,9.80
2018-10-21T20:15:33.325Z,9.80
2018-10-21T20:17:09.243Z,9.80
2018-10-21T20:18:43.454Z,9.80
2018-10-21T20:20:18.335Z,9.70
2018-10-21T20:21:53.111Z,9.70
2018-10-21T20:23:27.185Z,9.70
2018-10-21T20:25:03.132Z,9.60
2018-10-21T20:26:37.384Z,9.60
2018-10-21T20:28:11.578Z,9.60
2018-10-21T20:29:45.668Z,9.60
2018-10-21T20:31:19.808Z,9.60
2018-10-21T20:32:54.030Z,9.50
2018-10-21T20:34:27.988Z,9.60
2018-10-21T20:36:02.324Z,9.60
2018-10-21T20:37:36.544Z,9.60
2018-10-21T20:39:11.292Z,9.60
2018-10-21T20:40:45.372Z,9.60
2018-10-21T20:42:19.669Z,9.60
2018-10-21T20:43:53.935Z,9.70
2018-10-21T20:45:27.995Z,9.70
2018-10-21T20:47:02.039Z,9.70
2018-10-21T20:48:36.060Z,9.70
2018-10-21T20:50:10.160Z,9.80
2018-10-21T20:51:44.791Z,9.80
2018-10-21T20:53:18.825Z,9.80
2018-10-21T20:54:52.867Z,9.80
2018-10-21T20:56:26.930Z,9.90
2018-10-21T20:58:01.071Z,9.90
2018-10-21T20:59:35.274Z,9.90
2018-10-21T21:01:09.216Z,10.00
2018-10-21T21:02:43.279Z,10.10
2018-10-21T21:04:17.339Z,10.10
2018-10-21T21:05:51.355Z,10.10
2018-10-21T21:07:25.444Z,10.10
2018-10-21T21:09:00.466Z,10.20
2018-10-21T21:10:34.581Z,10.30
2018-10-21T21:12:08.720Z,10.20
2018-10-21T21:13:42.723Z,10.30
2018-10-21T21:15:16.763Z,10.30
2018-10-21T21:16:50.792Z,10.40
2018-10-21T21:18:24.843Z,10.40
2018-10-21T21:19:58.919Z,10.40
2018-10-21T21:21:32.958Z,10.40
2018-10-21T21:23:07.129Z,10.40
2018-10-21T21:24:41.215Z,10.50
2018-10-21T21:26:15.266Z,10.50
2018-10-21T21:27:49.328Z,10.50
2018-10-21T21:29:23.349Z,10.50
2018-10-21T21:30:57.363Z,10.50
2018-10-21T21:32:31.403Z,10.60
2018-10-21T21:34:05.791Z,10.60
2018-10-21T21:35:39.854Z,10.60
2018-10-21T21:37:13.931Z,10.70
2018-10-21T21:38:47.976Z,10.70
2018-10-21T21:40:22.015Z,10.70
2018-10-21T21:41:56.150Z,10.70
2018-10-21T21:43:30.164Z,10.70
2018-10-21T21:45:04.313Z,10.80
2018-10-21T21:46:39.065Z,10.80
2018-10-21T21:48:13.216Z,10.80
2018-10-21T21:49:47.306Z,10.80
2018-10-21T21:51:21.321Z,10.80
2018-10-21T21:52:55.417Z,10.90
2018-10-21T21:54:29.490Z,10.90
2018-10-21T21:56:03.596Z,10.90
2018-10-21T21:57:37.619Z,10.90
2018-10-21T21:59:12.372Z,11.00
2018-10-21T22:00:46.481Z,11.00
2018-10-21T22:02:20.552Z,11.00
2018-10-21T22:03:54.649Z,11.00
2018-10-21T22:05:28.713Z,10.90
2018-10-21T22:07:02.799Z,10.90
2018-10-21T22:08:39.826Z,10.90
2018-10-21T22:10:14.308Z,10.90
2018-10-21T22:11:48.321Z,10.90
2018-10-21T22:13:22.378Z,10.90
2018-10-21T22:14:56.425Z,10.90
2018-10-21T22:16:30.490Z,11.00
2018-10-21T22:18:04.641Z,11.00
2018-10-21T22:19:38.689Z,11.00
2018-10-21T22:21:12.742Z,10.90
2018-10-21T22:22:47.507Z,10.90
2018-10-21T22:24:21.549Z,10.90
2018-10-21T22:25:55.632Z,10.90
2018-10-21T22:27:29.715Z,10.90
2018-10-21T22:29:03.859Z,10.90
2018-10-21T22:30:37.996Z,10.90
2018-10-21T22:32:12.073Z,10.90
2018-10-21T22:33:46.160Z,10.90
2018-10-21T22:35:20.308Z,11.00
2018-10-21T22:36:54.463Z,11.00
2018-10-21T22:38:28.469Z,11.00
2018-10-21T22:40:02.563Z,11.10
2018-10-21T22:41:36.833Z,11.10
2018-10-21T22:43:10.961Z,11.10
2018-10-21T22:44:45.013Z,11.10
2018-10-21T22:46:19.216Z,11.10
2018-10-21T22:47:53.347Z,11.10
2018-10-21T22:49:27.418Z,11.10
2018-10-21T22:51:01.508Z,11.10
2018-10-21T22:52:35.556Z,11.10
2018-10-21T22:54:09.693Z,11.10
2018-10-21T22:55:43.702Z,11.20
2018-10-21T22:57:19.012Z,11.10
2018-10-21T22:58:53.403Z,11.20
2018-10-21T23:00:27.625Z,11.10
2018-10-21T23:02:01.710Z,11.20
2018-10-21T23:03:35.756Z,11.20
2018-10-21T23:05:09.997Z,11.20
2018-10-21T23:06:44.068Z,11.20
2018-10-21T23:08:18.166Z,11.20
2018-10-21T23:09:52.660Z,11.20
2018-10-21T23:11:26.892Z,11.20
2018-10-21T23:13:00.963Z,11.20
2018-10-21T23:14:35.091Z,11.20
2018-10-21T23:16:09.808Z,11.30
2018-10-21T23:17:43.824Z,11.30
2018-10-21T23:19:29.102Z,11.30
2018-10-21T23:21:03.270Z,11.30
2018-10-21T23:22:37.323Z,11.30
2018-10-21T23:24:11.476Z,11.30
2018-10-21T23:25:45.486Z,11.30
2018-10-21T23:27:19.742Z,11.30
2018-10-21T23:28:53.849Z,11.30
2018-10-21T23:30:27.909Z,11.30
2018-10-21T23:32:01.958Z,11.30
2018-10-21T23:33:36.012Z,11.30
2018-10-21T23:35:10.070Z,11.30
2018-10-21T23:36:44.115Z,11.30
2018-10-21T23:38:18.263Z,11.30
2018-10-21T23:39:52.439Z,11.30
2018-10-21T23:41:26.549Z,11.30
2018-10-21T23:43:00.631Z,11.30
2018-10-21T23:44:34.948Z,11.30
2018-10-21T23:46:09.023Z,11.30
2018-10-21T23:47:43.158Z,11.30
2018-10-21T23:49:17.270Z,11.40
2018-10-21T23:50:51.342Z,11.40
2018-10-21T23:52:25.435Z,11.40
2018-10-21T23:53:59.637Z,11.30
2018-10-21T23:55:33.678Z,11.40
2018-10-21T23:57:08.517Z,11.40
2018-10-21T23:58:42.619Z,11.30
